createdAt,value
2022-09-23T00:01:21.122Z,68.74
2022-09-23T00:03:49.725Z,69.15
2022-09-23T00:06:21.049Z,69.73
2022-09-23T00:08:52.195Z,69.83
2022-09-23T00:11:22.013Z,70.17
2022-09-23T00:13:50.631Z,70.07
2022-09-23T00:16:21.440Z,70.10
2022-09-23T00:18:50.456Z,70.29
2022-09-23T00:21:18.574Z,70.49
2022-09-23T00:23:46.656Z,70.50
2022-09-23T00:26:16.108Z,70.54
2022-09-23T00:28:44.034Z,70.44
2022-09-23T00:31:32.116Z,70.49
2022-09-23T00:34:00.884Z,70.45
2022-09-23T00:36:29.592Z,70.25
2022-09-23T00:38:57.381Z,71.05
2022-09-23T00:41:25.664Z,71.69
2022-09-23T00:43:58.683Z,71.92
2022-09-23T00:46:33.183Z,72.02
2022-09-23T00:49:04.024Z,72.07
2022-09-23T00:51:37.301Z,72.57
2022-09-23T00:54:05.780Z,72.03
2022-09-23T00:56:33.564Z,72.38
2022-09-23T00:59:01.270Z,72.17
2022-09-23T01:01:32.042Z,72.44
2022-09-23T01:04:00.311Z,72.79
2022-09-23T01:06:29.706Z,73.07
2022-09-23T01:08:57.748Z,73.19
2022-09-23T01:11:34.897Z,73.28
2022-09-23T01:14:12.956Z,73.39
2022-09-23T01:16:46.333Z,73.71
2022-09-23T01:19:36.287Z,73.00
2022-09-23T01:22:07.271Z,73.28
2022-09-23T01:24:36.007Z,73.20
2022-09-23T01:27:14.334Z,73.06
2022-09-23T01:30:06.755Z,72.80
2022-09-23T01:32:54.611Z,72.60
2022-09-23T01:35:35.498Z,72.73
2022-09-23T01:38:25.628Z,72.62
2022-09-23T01:41:21.054Z,72.16
2022-09-23T01:44:10.767Z,72.03
2022-09-23T01:46:48.081Z,72.54
2022-09-23T01:49:21.622Z,71.97
2022-09-23T01:51:59.992Z,71.72
2022-09-23T01:54:33.603Z,71.65
2022-09-23T01:57:04.757Z,72.17
2022-09-23T01:59:40.051Z,72.22
2022-09-23T02:02:12.014Z,71.85
2022-09-23T02:04:45.993Z,72.61
2022-09-23T02:07:29.332Z,73.70
2022-09-23T02:10:00.798Z,72.85
2022-09-23T02:12:29.508Z,73.62
2022-09-23T02:15:05.161Z,73.77
2022-09-23T02:17:43.874Z,74.04
2022-09-23T02:20:12.694Z,74.42
2022-09-23T02:22:44.138Z,75.12
2022-09-23T02:25:12.785Z,75.60
2022-09-23T02:27:50.616Z,75.32
2022-09-23T02:30:23.449Z,75.36
2022-09-23T02:33:06.492Z,75.33
2022-09-23T02:35:43.094Z,75.34
2022-09-23T02:38:26.247Z,75.23
2022-09-23T02:41:00.490Z,75.20
2022-09-23T02:43:36.487Z,74.73
2022-09-23T02:46:07.094Z,74.73
2022-09-23T02:48:53.630Z,74.32
2022-09-23T02:51:22.136Z,74.41
2022-09-23T02:53:56.688Z,74.31
2022-09-23T02:56:24.725Z,73.21
2022-09-23T02:58:54.601Z,73.30
2022-09-23T03:01:45.454Z,73.98
2022-09-23T03:04:31.829Z,74.32
2022-09-23T03:07:02.989Z,74.63
2022-09-23T03:09:38.800Z,74.33
2022-09-23T03:12:16.884Z,74.20
2022-09-23T03:15:08.752Z,73.68
2022-09-23T03:17:42.904Z,73.32
2022-09-23T03:20:15.646Z,73.72
2022-09-23T03:22:50.224Z,74.06
2022-09-23T03:25:25.264Z,73.72
2022-09-23T03:27:57.859Z,73.93
2022-09-23T03:30:27.080Z,73.53
2022-09-23T03:32:57.939Z,73.20
2022-09-23T03:35:27.798Z,73.11
2022-09-23T03:38:12.381Z,73.34
2022-09-23T03:40:43.046Z,72.94
2022-09-23T03:43:13.606Z,72.52
2022-09-23T03:45:42.840Z,72.70
2022-09-23T03:48:10.425Z,72.86
2022-09-23T03:50:39.494Z,73.08
2022-09-23T03:53:07.577Z,72.94
2022-09-23T03:55:37.672Z,72.45
2022-09-23T03:58:05.857Z,72.13
2022-09-23T04:00:36.384Z,72.08
2022-09-23T04:03:09.530Z,72.50
2022-09-23T04:05:40.002Z,72.22
2022-09-23T04:08:07.993Z,72.64
2022-09-23T04:10:36.463Z,72.48
2022-09-23T04:13:08.669Z,72.17
2022-09-23T04:15:36.889Z,72.48
2022-09-23T04:18:04.911Z,72.76
2022-09-23T04:20:33.289Z,71.95
2022-09-23T04:23:01.709Z,71.63
2022-09-23T04:25:29.542Z,71.75
2022-09-23T04:27:57.650Z,72.00
2022-09-23T04:30:25.955Z,72.03
2022-09-23T04:32:54.430Z,71.87
2022-09-23T04:35:22.440Z,72.11
2022-09-23T04:37:50.904Z,72.35
2022-09-23T04:40:19.721Z,72.61
2022-09-23T04:42:47.599Z,72.33
2022-09-23T04:45:15.843Z,72.18
2022-09-23T04:47:46.645Z,72.49
2022-09-23T04:50:14.619Z,72.60
2022-09-23T04:52:42.034Z,72.53
2022-09-23T04:55:11.354Z,73.26
2022-09-23T04:57:40.263Z,72.88
2022-09-23T05:00:08.758Z,73.07
2022-09-23T05:02:41.974Z,72.94
2022-09-23T05:05:10.084Z,72.68
2022-09-23T05:07:37.848Z,72.71
2022-09-23T05:10:06.151Z,73.01
2022-09-23T05:12:34.253Z,72.71
2022-09-23T05:15:02.771Z,73.15
2022-09-23T05:17:31.752Z,73.21
2022-09-23T05:20:00.039Z,73.02
2022-09-23T05:22:30.516Z,73.30
2022-09-23T05:25:00.147Z,73.30
2022-09-23T05:27:27.837Z,72.73
2022-09-23T05:29:55.544Z,72.35
2022-09-23T05:32:23.818Z,72.22
2022-09-23T05:34:55.286Z,71.37
2022-09-23T05:37:23.872Z,71.59
2022-09-23T05:39:52.276Z,71.44
2022-09-23T05:42:22.601Z,71.37
2022-09-23T05:44:50.931Z,71.26
2022-09-23T05:47:19.265Z,71.10
2022-09-23T05:49:59.651Z,71.13
2022-09-23T05:52:35.042Z,71.20
2022-09-23T05:55:04.301Z,71.00
2022-09-23T05:57:35.738Z,70.70
2022-09-23T06:00:04.876Z,70.70
2022-09-23T06:02:42.844Z,70.74
2022-09-23T06:05:12.195Z,70.89
2022-09-23T06:08:04.587Z,70.10
2022-09-23T06:10:43.309Z,70.35
2022-09-23T06:13:15.443Z,70.04
2022-09-23T06:15:48.743Z,70.29
2022-09-23T06:18:23.505Z,69.77
2022-09-23T06:20:52.711Z,68.96
2022-09-23T06:26:07.363Z,69.74
2022-09-23T06:28:48.230Z,69.85
2022-09-23T06:31:21.873Z,69.56
2022-09-23T06:33:50.255Z,67.62
2022-09-23T06:36:38.666Z,63.70
2022-09-23T06:39:11.598Z,56.79
2022-09-23T06:41:39.576Z,57.18
2022-09-23T06:44:23.980Z,56.39
2022-09-23T06:46:58.772Z,51.39
2022-09-23T06:49:30.240Z,47.90
2022-09-23T06:52:00.096Z,46.10
2022-09-23T06:54:31.200Z,44.63
2022-09-23T06:57:10.551Z,40.95
2022-09-23T06:59:39.237Z,39.51
2022-09-23T07:02:10.218Z,39.80
2022-09-23T07:04:38.451Z,39.83
2022-09-23T07:07:06.752Z,37.95
2022-09-23T07:09:34.695Z,39.03
2022-09-23T07:12:03.210Z,36.77
2022-09-23T07:14:31.154Z,38.52
2022-09-23T07:17:00.845Z,37.43
2022-09-23T07:19:31.666Z,37.12
2022-09-23T07:22:00.904Z,36.77
2022-09-23T07:24:29.936Z,35.79
2022-09-23T07:26:58.097Z,35.25
2022-09-23T07:29:27.806Z,34.40
2022-09-23T07:32:05.704Z,35.93
2022-09-23T07:34:38.013Z,34.90
2022-09-23T07:37:07.362Z,34.58
2022-09-23T07:39:37.539Z,36.98
2022-09-23T07:42:06.526Z,37.90
2022-09-23T07:44:34.721Z,38.15
2022-09-23T07:47:04.153Z,36.86
2022-09-23T07:49:36.096Z,36.74
2022-09-23T07:52:07.502Z,36.55
2022-09-23T07:54:41.051Z,36.67
2022-09-23T07:57:09.385Z,35.37
2022-09-23T07:59:36.998Z,35.02
2022-09-23T08:02:05.434Z,36.84
2022-09-23T08:04:34.494Z,36.00
2022-09-23T08:07:07.151Z,36.91
2022-09-23T08:09:42.986Z,36.63
2022-09-23T08:12:16.077Z,35.90
2022-09-23T08:14:45.921Z,34.58
2022-09-23T08:17:15.017Z,32.19
2022-09-23T08:19:43.048Z,31.53
2022-09-23T08:22:12.831Z,34.95
2022-09-23T08:24:41.158Z,41.15
2022-09-23T08:27:10.594Z,44.14
2022-09-23T08:29:38.537Z,47.01
2022-09-23T08:32:06.681Z,48.08
2022-09-23T08:34:36.049Z,47.43
2022-09-23T08:37:04.767Z,46.77
2022-09-23T08:39:32.394Z,46.24
2022-09-23T08:42:16.993Z,46.24
2022-09-23T08:44:59.308Z,46.21
2022-09-23T08:47:32.808Z,46.03
2022-09-23T08:50:05.222Z,46.74
2022-09-23T08:52:55.352Z,46.21
2022-09-23T08:55:37.653Z,46.83
2022-09-23T08:58:26.457Z,45.52
2022-09-23T09:01:04.790Z,45.73
2022-09-23T09:03:43.596Z,45.49
2022-09-23T09:06:18.262Z,44.93
2022-09-23T09:09:02.573Z,44.75
2022-09-23T09:11:48.690Z,45.29
2022-09-23T09:14:29.412Z,45.36
2022-09-23T09:17:13.116Z,45.26
2022-09-23T09:19:53.571Z,45.21
2022-09-23T09:22:30.613Z,45.10
2022-09-23T09:25:16.860Z,44.63
2022-09-23T09:27:49.047Z,44.16
2022-09-23T09:30:25.854Z,43.67
2022-09-23T09:33:07.977Z,43.76
2022-09-23T09:35:57.008Z,43.98
2022-09-23T09:38:30.531Z,44.25
2022-09-23T09:41:10.941Z,43.80
2022-09-23T09:43:49.759Z,43.58
2022-09-23T09:46:38.981Z,43.54
2022-09-23T09:49:13.791Z,43.97
2022-09-23T09:51:53.074Z,43.43
2022-09-23T09:54:27.814Z,42.68
2022-09-23T09:57:01.021Z,43.20
2022-09-23T09:59:30.632Z,43.79
2022-09-23T10:02:22.742Z,43.59
2022-09-23T10:05:05.886Z,42.55
2022-09-23T10:07:37.847Z,42.33
2022-09-23T10:10:32.398Z,41.59
2022-09-23T10:13:17.048Z,41.73
2022-09-23T10:15:45.934Z,42.44
2022-09-23T10:18:23.494Z,42.25
2022-09-23T10:20:51.475Z,41.02
2022-09-23T10:23:26.236Z,40.79
2022-09-23T10:26:05.533Z,39.87
2022-09-23T10:28:42.108Z,40.12
2022-09-23T10:31:26.854Z,39.23
2022-09-23T10:34:06.197Z,38.39
2022-09-23T10:36:43.830Z,39.41
2022-09-23T10:39:30.868Z,40.80
2022-09-23T10:42:39.411Z,42.07
2022-09-23T10:45:43.532Z,40.75
2022-09-23T10:48:30.471Z,40.83
2022-09-23T10:51:01.229Z,42.17
2022-09-23T10:53:44.650Z,41.35
2022-09-23T10:56:16.727Z,40.53
2022-09-23T10:59:05.763Z,41.36
2022-09-23T11:01:59.404Z,41.52
2022-09-23T11:04:55.523Z,41.17
2022-09-23T11:07:46.065Z,40.17
2022-09-23T11:10:47.906Z,38.94
2022-09-23T11:13:19.376Z,38.51
2022-09-23T11:16:04.704Z,37.46
2022-09-23T11:18:52.012Z,38.39
2022-09-23T11:21:46.575Z,38.96
2022-09-23T11:24:58.977Z,39.78
2022-09-23T11:27:52.228Z,39.92
2022-09-23T11:30:21.544Z,41.31
2022-09-23T11:33:28.827Z,42.27
2022-09-23T11:36:00.246Z,42.41
2022-09-23T11:38:46.879Z,42.95
2022-09-23T11:41:27.272Z,40.08
2022-09-23T11:44:10.455Z,40.02
2022-09-23T11:47:03.096Z,40.40
2022-09-23T11:49:49.965Z,40.04
2022-09-23T11:52:30.367Z,39.75
2022-09-23T11:55:03.135Z,39.49
2022-09-23T11:57:52.303Z,39.86
2022-09-23T12:00:24.635Z,39.64
2022-09-23T12:03:07.817Z,39.51
2022-09-23T12:05:40.282Z,40.16
2022-09-23T12:08:29.943Z,38.78
2022-09-23T12:11:16.514Z,38.58
2022-09-23T12:14:05.473Z,37.25
2022-09-23T12:17:08.151Z,39.72
2022-09-23T12:19:54.805Z,39.18
2022-09-23T12:23:07.991Z,38.98
2022-09-23T12:25:52.664Z,39.74
2022-09-23T12:28:24.898Z,37.44
2022-09-23T12:30:54.309Z,38.61
2022-09-23T12:33:27.826Z,37.96
2022-09-23T12:36:05.093Z,38.94
2022-09-23T12:38:50.846Z,37.89
2022-09-23T12:41:19.816Z,37.35
2022-09-23T12:43:55.603Z,35.85
2022-09-23T12:46:27.712Z,35.51
2022-09-23T12:48:58.211Z,36.16
2022-09-23T12:51:32.913Z,37.77
2022-09-23T12:54:03.579Z,36.61
2022-09-23T12:56:34.508Z,37.64
2022-09-23T12:59:02.641Z,38.32
2022-09-23T13:01:36.800Z,38.48
2022-09-23T13:04:23.295Z,39.50
2022-09-23T13:06:59.117Z,39.97
2022-09-23T13:09:31.813Z,39.81
2022-09-23T13:12:04.239Z,39.53
2022-09-23T13:14:32.837Z,40.63
2022-09-23T13:17:00.300Z,40.18
2022-09-23T13:19:28.080Z,40.69
2022-09-23T13:22:00.686Z,40.58
2022-09-23T13:24:31.356Z,39.72
2022-09-23T13:27:16.551Z,38.50
2022-09-23T13:30:08.470Z,38.19
2022-09-23T13:32:39.327Z,37.57
2022-09-23T13:35:13.278Z,38.24
2022-09-23T13:37:48.923Z,37.53
2022-09-23T13:40:16.921Z,37.85
2022-09-23T13:43:11.022Z,36.99
2022-09-23T13:45:40.580Z,37.84
2022-09-23T13:48:11.497Z,38.61
2022-09-23T13:50:40.990Z,39.12
2022-09-23T13:53:13.427Z,39.25
2022-09-23T13:55:42.242Z,38.64
2022-09-23T13:58:20.485Z,39.44
2022-09-23T14:00:48.673Z,41.00
2022-09-23T14:03:29.359Z,40.16
2022-09-23T14:06:00.830Z,40.62
2022-09-23T14:08:29.503Z,40.21
2022-09-23T14:10:59.268Z,40.55
2022-09-23T14:13:27.155Z,40.58
2022-09-23T14:15:58.445Z,40.01
2022-09-23T14:18:33.012Z,39.60
2022-09-23T14:21:01.072Z,39.32
2022-09-23T14:23:28.572Z,39.85
2022-09-23T14:25:57.300Z,40.00
2022-09-23T14:28:26.528Z,41.17
2022-09-23T14:30:57.820Z,40.54
2022-09-23T14:33:32.690Z,39.98
2022-09-23T14:36:31.382Z,39.39
2022-09-23T14:39:07.618Z,39.23
2022-09-23T14:41:39.565Z,38.58
2022-09-23T14:44:07.703Z,40.03
2022-09-23T14:46:36.383Z,40.00
2022-09-23T14:49:10.818Z,40.20
2022-09-23T14:51:55.471Z,39.77
2022-09-23T14:54:44.397Z,40.22
2022-09-23T14:57:24.069Z,40.63
2022-09-23T15:00:00.212Z,40.64
2022-09-23T15:02:35.768Z,42.35
2022-09-23T15:05:20.442Z,42.06
2022-09-23T15:07:53.054Z,41.74
2022-09-23T15:10:28.249Z,40.89
2022-09-23T15:13:02.765Z,39.63
2022-09-23T15:15:31.897Z,41.05
2022-09-23T15:18:07.379Z,40.45
2022-09-23T15:20:35.071Z,40.87
2022-09-23T15:23:02.522Z,40.39
2022-09-23T15:25:40.837Z,41.40
2022-09-23T15:28:11.496Z,41.23
2022-09-23T15:30:39.592Z,41.70
2022-09-23T15:33:09.683Z,42.05
2022-09-23T15:35:37.632Z,42.58
2022-09-23T15:38:05.221Z,41.67
2022-09-23T15:40:34.299Z,41.36
2022-09-23T15:43:21.115Z,41.77
2022-09-23T15:45:52.836Z,41.85
2022-09-23T15:48:26.066Z,41.87
2022-09-23T15:50:54.532Z,43.04
2022-09-23T15:53:27.224Z,42.36
2022-09-23T15:55:55.451Z,42.73
2022-09-23T15:58:23.756Z,42.86
2022-09-23T16:00:56.051Z,43.17
2022-09-23T16:03:30.914Z,43.31
2022-09-23T16:06:01.452Z,43.32
2022-09-23T16:08:29.895Z,43.39
2022-09-23T16:10:57.734Z,43.15
2022-09-23T16:13:25.230Z,43.83
2022-09-23T16:15:53.371Z,44.85
2022-09-23T16:18:21.135Z,44.72
2022-09-23T16:20:49.644Z,44.88
2022-09-23T16:23:37.384Z,45.16
2022-09-23T16:26:27.073Z,45.36
2022-09-23T16:28:55.594Z,46.60
2022-09-23T16:31:25.663Z,46.40
2022-09-23T16:33:53.826Z,47.02
2022-09-23T16:36:27.780Z,46.88
2022-09-23T16:38:55.884Z,46.82
2022-09-23T16:41:24.788Z,47.32
2022-09-23T16:43:53.471Z,47.53
2022-09-23T16:46:21.539Z,47.71
2022-09-23T16:48:52.907Z,47.63
2022-09-23T16:51:22.419Z,48.55
2022-09-23T16:53:51.371Z,48.55
2022-09-23T16:56:27.298Z,49.12
2022-09-23T16:58:56.729Z,49.42
2022-09-23T17:01:44.440Z,49.08
2022-09-23T17:04:13.687Z,49.72
2022-09-23T17:06:50.780Z,50.17
2022-09-23T17:09:20.551Z,50.34
2022-09-23T17:11:53.646Z,50.25
2022-09-23T17:14:21.590Z,50.32
2022-09-23T17:16:49.215Z,51.39
2022-09-23T17:19:16.994Z,50.64
2022-09-23T17:21:45.068Z,50.59
2022-09-23T17:24:13.392Z,50.64
2022-09-23T17:26:41.050Z,51.01
2022-09-23T17:29:09.969Z,51.22
2022-09-23T17:31:37.824Z,52.99
2022-09-23T17:34:05.803Z,52.81
2022-09-23T17:36:33.460Z,54.02
2022-09-23T17:39:01.755Z,54.53
2022-09-23T17:41:29.999Z,53.80
2022-09-23T17:43:58.929Z,54.09
2022-09-23T17:46:29.217Z,54.04
2022-09-23T17:48:57.574Z,54.14
2022-09-23T17:51:26.634Z,55.40
2022-09-23T17:53:54.944Z,56.77
2022-09-23T17:56:25.688Z,57.36
2022-09-23T17:58:54.119Z,56.97
2022-09-23T18:01:23.810Z,56.37
2022-09-23T18:03:55.537Z,56.32
2022-09-23T18:06:24.315Z,56.24
2022-09-23T18:08:52.525Z,56.37
2022-09-23T18:11:23.046Z,56.17
2022-09-23T18:14:07.629Z,56.78
2022-09-23T18:16:37.213Z,56.86
2022-09-23T18:19:05.570Z,57.59
2022-09-23T18:21:35.987Z,57.66
2022-09-23T18:24:30.860Z,58.04
2022-09-23T18:26:52.970Z,57.52
2022-09-23T18:29:20.379Z,59.47
2022-09-23T18:31:51.160Z,59.76
2022-09-23T18:34:19.286Z,59.59
2022-09-23T18:36:46.822Z,58.93
2022-09-23T18:39:14.523Z,58.76
2022-09-23T18:41:43.929Z,59.53
2022-09-23T18:44:11.600Z,59.02
2022-09-23T18:46:39.753Z,59.85
2022-09-23T18:49:26.353Z,60.56
2022-09-23T18:51:55.962Z,59.56
2022-09-23T18:54:24.538Z,60.56
2022-09-23T18:56:53.262Z,61.16
2022-09-23T18:59:24.050Z,62.09
2022-09-23T19:01:52.253Z,63.24
2022-09-23T19:04:21.695Z,64.20
2022-09-23T19:06:50.329Z,64.04
2022-09-23T19:09:18.170Z,64.25
2022-09-23T19:11:46.978Z,64.21
2022-09-23T19:14:14.726Z,64.22
2022-09-23T19:16:42.764Z,64.34
2022-09-23T19:19:11.149Z,64.68
2022-09-23T19:21:38.890Z,64.96
2022-09-23T19:24:07.913Z,65.69
2022-09-23T19:26:38.666Z,64.75
2022-09-23T19:29:08.458Z,65.64
2022-09-23T19:31:40.714Z,65.63
2022-09-23T19:34:12.814Z,65.42
2022-09-23T19:36:43.069Z,63.74
2022-09-23T19:39:18.537Z,64.97
2022-09-23T19:41:47.074Z,64.44
2022-09-23T19:44:15.089Z,64.38
2022-09-23T19:46:46.098Z,64.84
2022-09-23T19:49:14.161Z,64.85
2022-09-23T19:51:44.710Z,65.03
2022-09-23T19:54:13.252Z,64.70
2022-09-23T19:56:40.802Z,64.79
2022-09-23T19:59:09.781Z,65.06
2022-09-23T20:01:37.695Z,65.05
2022-09-23T20:04:05.792Z,65.01
2022-09-23T20:06:39.262Z,64.89
2022-09-23T20:09:07.066Z,65.23
2022-09-23T20:11:35.123Z,65.07
2022-09-23T20:14:03.941Z,65.11
2022-09-23T20:16:33.214Z,66.61
2022-09-23T20:19:01.197Z,67.16
2022-09-23T20:21:29.511Z,67.01
2022-09-23T20:24:01.100Z,67.41
2022-09-23T20:26:47.393Z,67.48
2022-09-23T20:29:15.171Z,67.16
2022-09-23T20:31:42.819Z,66.64
2022-09-23T20:34:11.251Z,66.59
2022-09-23T20:36:40.166Z,66.05
2022-09-23T20:39:08.220Z,65.86
2022-09-23T20:41:38.075Z,66.06
2022-09-23T20:44:08.199Z,66.30
2022-09-23T20:46:36.502Z,65.37
2022-09-23T20:49:04.341Z,65.89
2022-09-23T20:51:35.172Z,64.67
2022-09-23T20:54:02.762Z,64.85
2022-09-23T20:56:30.470Z,64.42
2022-09-23T20:59:01.471Z,65.10
2022-09-23T21:01:29.284Z,65.07
2022-09-23T21:03:56.924Z,65.65
2022-09-23T21:06:26.390Z,65.79
2022-09-23T21:08:54.782Z,65.78
2022-09-23T21:11:22.699Z,65.72
2022-09-23T21:13:51.226Z,65.88
2022-09-23T21:16:22.572Z,65.91
2022-09-23T21:18:50.672Z,66.34
2022-09-23T21:21:19.841Z,66.02
2022-09-23T21:23:48.012Z,65.77
2022-09-23T21:26:19.937Z,65.86
2022-09-23T21:28:48.879Z,66.18
2022-09-23T21:31:27.264Z,65.98
2022-09-23T21:34:02.457Z,66.66
2022-09-23T21:36:34.780Z,66.33
2022-09-23T21:39:03.350Z,66.39
2022-09-23T21:41:31.200Z,65.94
2022-09-23T21:43:59.736Z,65.81
2022-09-23T21:46:28.488Z,65.90
2022-09-23T21:48:57.647Z,66.08
2022-09-23T21:51:26.946Z,66.45
2022-09-23T21:53:55.386Z,66.66
2022-09-23T21:56:27.541Z,67.07
2022-09-23T21:58:55.706Z,67.14
2022-09-23T22:01:24.803Z,67.32
2022-09-23T22:03:54.170Z,68.06
2022-09-23T22:06:27.297Z,68.12
2022-09-23T22:08:59.388Z,68.21
2022-09-23T22:11:50.148Z,67.55
2022-09-23T22:14:20.449Z,68.29
2022-09-23T22:16:48.861Z,67.90
2022-09-23T22:19:16.909Z,67.95
2022-09-23T22:21:45.335Z,67.58
2022-09-23T22:24:13.006Z,66.75
2022-09-23T22:26:44.657Z,67.13
2022-09-23T22:29:32.602Z,67.40
2022-09-23T22:32:19.045Z,68.33
2022-09-23T22:34:50.683Z,67.88
2022-09-23T22:37:27.289Z,67.93
2022-09-23T22:39:55.153Z,67.91
2022-09-23T22:42:22.814Z,68.02
2022-09-23T22:44:50.821Z,68.09
2022-09-23T22:47:19.448Z,68.38
2022-09-23T22:49:47.781Z,68.90
2022-09-23T22:52:16.687Z,69.11
2022-09-23T22:54:44.422Z,69.22
2022-09-23T22:57:12.346Z,69.38
2022-09-23T22:59:42.449Z,69.56
2022-09-23T23:02:10.015Z,69.82
2022-09-23T23:04:37.503Z,69.95
2022-09-23T23:07:06.121Z,70.13
2022-09-23T23:09:33.673Z,70.39
2022-09-23T23:12:01.292Z,70.23
2022-09-23T23:14:31.688Z,71.06
2022-09-23T23:16:59.789Z,70.45
2022-09-23T23:19:27.357Z,70.57
2022-09-23T23:21:55.301Z,71.26
2022-09-23T23:24:23.399Z,71.06
2022-09-23T23:26:51.721Z,70.39
2022-09-23T23:29:20.563Z,69.44
2022-09-23T23:31:48.342Z,70.16
2022-09-23T23:34:17.754Z,71.00
2022-09-23T23:36:45.882Z,71.46
2022-09-23T23:39:13.997Z,71.82
2022-09-23T23:41:41.823Z,71.44
2022-09-23T23:44:09.426Z,70.79
2022-09-23T23:46:37.665Z,70.63
2022-09-23T23:49:06.931Z,70.05
2022-09-23T23:51:34.662Z,70.10
2022-09-23T23:54:02.239Z,70.38
2022-09-23T23:56:30.397Z,71.02
2022-09-23T23:58:59.101Z,71.37
